logo
Rechercher aéroport 
image banner adimage banner adimage banner ad
image banner ad

NVVW - Tanna

Situé à Lenakel, Vanuatu

ICAO - NVVW, IATA - TAH

Données fournies par Airmate  

Information générale

Coordonnées: S19°27'18" E169°13'24"
Élévation : 27 feet MSL.
 
Voir autres Aéroports à Tafea

Données opérationnelles

Special qualification required
Heure actuelle UTC:
Heure actuelle locale:
Météo
TAF: TAF NVVW 171100Z 1712/1812 VRB02KT 9999 SCT020
Voir NOTAMs / SUP AIP / TFR affectant cet aéroport [VIEW]
Fréquences de communication: [VIEW]

Pistes:

Identifiant RWYQFULongueur (ft)Largeur (ft)SurfaceLDA (ft)
15145°403598ASP
33325°403598ASP

Coordonnées de l'aéroport

Adresse: Lenakel Vanuatu

Vue satellite de NVVW